sensor_id;sensor_type;location;lat;lon;timestamp;P1;durP1;ratioP1;P2;durP2;ratioP2
60588;SDS011;46421;48.610;9.334;2022-10-16T00:01:29;0.30;;;0.30;;
60588;SDS011;46421;48.610;9.334;2022-10-16T00:03:56;0.40;;;0.40;;
60588;SDS011;46421;48.610;9.334;2022-10-16T00:06:23;0.30;;;0.30;;
60588;SDS011;46421;48.610;9.334;2022-10-16T00:08:50;0.40;;;0.40;;
60588;SDS011;46421;48.610;9.334;2022-10-16T00:11:26;0.30;;;0.30;;
60588;SDS011;46421;48.610;9.334;2022-10-16T00:13:58;0.40;;;0.40;;
60588;SDS011;46421;48.610;9.334;2022-10-16T00:16:26;0.30;;;0.30;;
60588;SDS011;46421;48.610;9.334;2022-10-16T00:18:52;0.30;;;0.30;;
60588;SDS011;46421;48.610;9.334;2022-10-16T00:21:19;0.30;;;0.30;;
60588;SDS011;46421;48.610;9.334;2022-10-16T00:23:46;0.30;;;0.30;;
60588;SDS011;46421;48.610;9.334;2022-10-16T00:26:16;0.20;;;0.20;;
60588;SDS011;46421;48.610;9.334;2022-10-16T00:28:42;0.32;;;0.32;;
60588;SDS011;46421;48.610;9.334;2022-10-16T00:31:11;0.20;;;0.20;;
60588;SDS011;46421;48.610;9.334;2022-10-16T00:33:37;0.40;;;0.40;;
60588;SDS011;46421;48.610;9.334;2022-10-16T00:36:04;0.40;;;0.40;;
60588;SDS011;46421;48.610;9.334;2022-10-16T00:38:30;0.30;;;0.30;;
60588;SDS011;46421;48.610;9.334;2022-10-16T00:40:56;0.30;;;0.30;;
60588;SDS011;46421;48.610;9.334;2022-10-16T00:43:32;0.25;;;0.25;;
60588;SDS011;46421;48.610;9.334;2022-10-16T00:45:59;0.30;;;0.30;;
60588;SDS011;46421;48.610;9.334;2022-10-16T00:48:26;0.28;;;0.28;;
60588;SDS011;46421;48.610;9.334;2022-10-16T00:50:52;0.30;;;0.30;;
60588;SDS011;46421;48.610;9.334;2022-10-16T00:53:18;0.40;;;0.40;;
60588;SDS011;46421;48.610;9.334;2022-10-16T00:55:44;0.35;;;0.35;;
60588;SDS011;46421;48.610;9.334;2022-10-16T00:58:11;0.30;;;0.30;;
60588;SDS011;46421;48.610;9.334;2022-10-16T01:00:37;0.30;;;0.30;;
60588;SDS011;46421;48.610;9.334;2022-10-16T01:03:21;0.20;;;0.20;;
60588;SDS011;46421;48.610;9.334;2022-10-16T01:05:49;0.20;;;0.20;;
60588;SDS011;46421;48.610;9.334;2022-10-16T01:08:33;0.32;;;0.32;;
60588;SDS011;46421;48.610;9.334;2022-10-16T01:11:09;0.32;;;0.32;;
60588;SDS011;46421;48.610;9.334;2022-10-16T01:13:43;0.30;;;0.30;;
60588;SDS011;46421;48.610;9.334;2022-10-16T01:16:19;0.30;;;0.30;;
60588;SDS011;46421;48.610;9.334;2022-10-16T01:19:02;0.20;;;0.20;;
60588;SDS011;46421;48.610;9.334;2022-10-16T01:21:38;0.30;;;0.30;;
60588;SDS011;46421;48.610;9.334;2022-10-16T01:24:09;0.30;;;0.30;;
60588;SDS011;46421;48.610;9.334;2022-10-16T01:29:39;0.30;;;0.30;;
60588;SDS011;46421;48.610;9.334;2022-10-16T01:32:17;0.32;;;0.32;;
60588;SDS011;46421;48.610;9.334;2022-10-16T01:35:02;0.50;;;0.50;;
60588;SDS011;46421;48.610;9.334;2022-10-16T01:40:11;0.35;;;0.35;;
60588;SDS011;46421;48.610;9.334;2022-10-16T01:42:48;0.40;;;0.40;;
60588;SDS011;46421;48.610;9.334;2022-10-16T01:45:18;0.30;;;0.30;;
60588;SDS011;46421;48.610;9.334;2022-10-16T01:47:44;0.30;;;0.30;;
60588;SDS011;46421;48.610;9.334;2022-10-16T01:50:12;0.30;;;0.30;;
60588;SDS011;46421;48.610;9.334;2022-10-16T01:52:42;0.40;;;0.40;;
60588;SDS011;46421;48.610;9.334;2022-10-16T01:55:12;0.40;;;0.40;;
60588;SDS011;46421;48.610;9.334;2022-10-16T01:57:43;0.30;;;0.30;;
60588;SDS011;46421;48.610;9.334;2022-10-16T02:00:13;0.40;;;0.40;;
60588;SDS011;46421;48.610;9.334;2022-10-16T02:02:44;0.30;;;0.30;;
60588;SDS011;46421;48.610;9.334;2022-10-16T02:08:18;0.22;;;0.22;;
60588;SDS011;46421;48.610;9.334;2022-10-16T02:10:46;0.30;;;0.30;;
60588;SDS011;46421;48.610;9.334;2022-10-16T02:13:13;0.35;;;0.35;;
60588;SDS011;46421;48.610;9.334;2022-10-16T02:15:39;0.38;;;0.38;;
60588;SDS011;46421;48.610;9.334;2022-10-16T02:18:05;0.40;;;0.40;;
60588;SDS011;46421;48.610;9.334;2022-10-16T02:20:34;0.30;;;0.30;;
60588;SDS011;46421;48.610;9.334;2022-10-16T02:23:12;0.40;;;0.40;;
60588;SDS011;46421;48.610;9.334;2022-10-16T02:25:44;0.40;;;0.40;;
60588;SDS011;46421;48.610;9.334;2022-10-16T02:28:22;0.30;;;0.30;;
60588;SDS011;46421;48.610;9.334;2022-10-16T02:30:59;0.40;;;0.40;;
60588;SDS011;46421;48.610;9.334;2022-10-16T02:33:29;0.35;;;0.35;;
60588;SDS011;46421;48.610;9.334;2022-10-16T02:35:56;0.30;;;0.30;;
60588;SDS011;46421;48.610;9.334;2022-10-16T02:38:22;0.50;;;0.50;;
60588;SDS011;46421;48.610;9.334;2022-10-16T02:40:49;0.40;;;0.40;;
60588;SDS011;46421;48.610;9.334;2022-10-16T02:43:15;0.40;;;0.40;;
60588;SDS011;46421;48.610;9.334;2022-10-16T02:45:41;0.30;;;0.30;;
60588;SDS011;46421;48.610;9.334;2022-10-16T02:48:07;0.22;;;0.22;;
60588;SDS011;46421;48.610;9.334;2022-10-16T02:50:32;0.35;;;0.35;;
60588;SDS011;46421;48.610;9.334;2022-10-16T02:52:58;0.30;;;0.30;;
60588;SDS011;46421;48.610;9.334;2022-10-16T02:55:23;0.30;;;0.30;;
60588;SDS011;46421;48.610;9.334;2022-10-16T02:57:48;0.28;;;0.28;;
60588;SDS011;46421;48.610;9.334;2022-10-16T03:00:15;0.30;;;0.30;;
60588;SDS011;46421;48.610;9.334;2022-10-16T03:02:42;0.35;;;0.35;;
60588;SDS011;46421;48.610;9.334;2022-10-16T03:05:07;0.45;;;0.45;;
60588;SDS011;46421;48.610;9.334;2022-10-16T03:07:33;0.32;;;0.32;;
60588;SDS011;46421;48.610;9.334;2022-10-16T03:09:58;0.30;;;0.30;;
60588;SDS011;46421;48.610;9.334;2022-10-16T03:12:27;0.25;;;0.25;;
60588;SDS011;46421;48.610;9.334;2022-10-16T03:14:53;0.32;;;0.32;;
60588;SDS011;46421;48.610;9.334;2022-10-16T03:17:21;0.30;;;0.30;;
60588;SDS011;46421;48.610;9.334;2022-10-16T03:19:47;0.38;;;0.38;;
60588;SDS011;46421;48.610;9.334;2022-10-16T03:22:13;0.30;;;0.30;;
60588;SDS011;46421;48.610;9.334;2022-10-16T03:24:38;0.30;;;0.30;;
60588;SDS011;46421;48.610;9.334;2022-10-16T03:27:04;0.40;;;0.40;;
60588;SDS011;46421;48.610;9.334;2022-10-16T03:29:29;0.30;;;0.30;;
60588;SDS011;46421;48.610;9.334;2022-10-16T03:31:55;0.32;;;0.32;;
60588;SDS011;46421;48.610;9.334;2022-10-16T03:34:21;0.30;;;0.30;;
60588;SDS011;46421;48.610;9.334;2022-10-16T03:36:47;0.25;;;0.25;;
60588;SDS011;46421;48.610;9.334;2022-10-16T03:39:12;0.40;;;0.40;;
60588;SDS011;46421;48.610;9.334;2022-10-16T03:41:38;0.40;;;0.40;;
60588;SDS011;46421;48.610;9.334;2022-10-16T03:44:03;0.30;;;0.30;;
60588;SDS011;46421;48.610;9.334;2022-10-16T03:46:28;0.40;;;0.40;;
60588;SDS011;46421;48.610;9.334;2022-10-16T03:48:54;0.40;;;0.40;;
60588;SDS011;46421;48.610;9.334;2022-10-16T03:51:20;0.43;;;0.43;;
60588;SDS011;46421;48.610;9.334;2022-10-16T03:53:45;0.30;;;0.30;;
60588;SDS011;46421;48.610;9.334;2022-10-16T03:56:10;0.40;;;0.40;;
60588;SDS011;46421;48.610;9.334;2022-10-16T03:58:36;0.32;;;0.32;;
60588;SDS011;46421;48.610;9.334;2022-10-16T04:01:04;0.30;;;0.30;;
60588;SDS011;46421;48.610;9.334;2022-10-16T04:03:29;0.30;;;0.30;;
60588;SDS011;46421;48.610;9.334;2022-10-16T04:05:55;0.30;;;0.30;;
60588;SDS011;46421;48.610;9.334;2022-10-16T04:08:20;0.20;;;0.20;;
60588;SDS011;46421;48.610;9.334;2022-10-16T04:10:46;0.30;;;0.30;;
60588;SDS011;46421;48.610;9.334;2022-10-16T04:13:12;0.43;;;0.43;;
60588;SDS011;46421;48.610;9.334;2022-10-16T04:15:37;0.40;;;0.40;;
60588;SDS011;46421;48.610;9.334;2022-10-16T04:18:03;0.30;;;0.30;;
60588;SDS011;46421;48.610;9.334;2022-10-16T04:20:29;0.30;;;0.30;;
60588;SDS011;46421;48.610;9.334;2022-10-16T04:22:55;0.30;;;0.30;;
60588;SDS011;46421;48.610;9.334;2022-10-16T04:25:20;0.40;;;0.40;;
60588;SDS011;46421;48.610;9.334;2022-10-16T04:27:46;0.35;;;0.35;;
60588;SDS011;46421;48.610;9.334;2022-10-16T04:30:11;0.40;;;0.40;;
60588;SDS011;46421;48.610;9.334;2022-10-16T04:32:38;0.30;;;0.30;;
60588;SDS011;46421;48.610;9.334;2022-10-16T04:35:03;0.30;;;0.30;;
60588;SDS011;46421;48.610;9.334;2022-10-16T04:37:29;0.30;;;0.30;;
60588;SDS011;46421;48.610;9.334;2022-10-16T04:39:54;0.32;;;0.32;;
60588;SDS011;46421;48.610;9.334;2022-10-16T04:42:20;0.35;;;0.35;;
60588;SDS011;46421;48.610;9.334;2022-10-16T04:44:45;0.43;;;0.43;;
60588;SDS011;46421;48.610;9.334;2022-10-16T04:47:11;0.35;;;0.35;;
60588;SDS011;46421;48.610;9.334;2022-10-16T04:49:36;0.30;;;0.30;;
60588;SDS011;46421;48.610;9.334;2022-10-16T04:52:02;0.30;;;0.30;;
60588;SDS011;46421;48.610;9.334;2022-10-16T04:54:28;0.40;;;0.40;;
60588;SDS011;46421;48.610;9.334;2022-10-16T04:56:53;0.30;;;0.30;;
60588;SDS011;46421;48.610;9.334;2022-10-16T04:59:19;0.28;;;0.28;;
60588;SDS011;46421;48.610;9.334;2022-10-16T05:01:46;0.30;;;0.30;;
60588;SDS011;46421;48.610;9.334;2022-10-16T05:04:11;0.30;;;0.30;;
60588;SDS011;46421;48.610;9.334;2022-10-16T05:06:38;0.38;;;0.38;;
60588;SDS011;46421;48.610;9.334;2022-10-16T05:09:04;0.20;;;0.20;;
60588;SDS011;46421;48.610;9.334;2022-10-16T05:11:30;0.38;;;0.38;;
60588;SDS011;46421;48.610;9.334;2022-10-16T05:13:56;0.30;;;0.30;;
60588;SDS011;46421;48.610;9.334;2022-10-16T05:16:21;0.35;;;0.35;;
60588;SDS011;46421;48.610;9.334;2022-10-16T05:18:47;0.40;;;0.40;;
60588;SDS011;46421;48.610;9.334;2022-10-16T05:21:12;0.40;;;0.40;;
60588;SDS011;46421;48.610;9.334;2022-10-16T05:23:38;0.40;;;0.40;;
60588;SDS011;46421;48.610;9.334;2022-10-16T05:26:03;0.35;;;0.35;;
60588;SDS011;46421;48.610;9.334;2022-10-16T05:28:29;0.30;;;0.30;;
60588;SDS011;46421;48.610;9.334;2022-10-16T05:30:55;0.40;;;0.40;;
60588;SDS011;46421;48.610;9.334;2022-10-16T05:33:22;0.22;;;0.22;;
60588;SDS011;46421;48.610;9.334;2022-10-16T05:35:49;0.30;;;0.30;;
60588;SDS011;46421;48.610;9.334;2022-10-16T05:38:15;0.40;;;0.40;;
60588;SDS011;46421;48.610;9.334;2022-10-16T05:40:41;0.30;;;0.30;;
60588;SDS011;46421;48.610;9.334;2022-10-16T05:43:06;0.30;;;0.30;;
60588;SDS011;46421;48.610;9.334;2022-10-16T05:45:32;0.38;;;0.38;;
60588;SDS011;46421;48.610;9.334;2022-10-16T05:47:57;0.30;;;0.30;;
60588;SDS011;46421;48.610;9.334;2022-10-16T05:50:22;0.30;;;0.30;;
60588;SDS011;46421;48.610;9.334;2022-10-16T05:52:48;0.40;;;0.40;;
60588;SDS011;46421;48.610;9.334;2022-10-16T05:55:13;0.30;;;0.30;;
60588;SDS011;46421;48.610;9.334;2022-10-16T05:57:38;0.35;;;0.35;;
60588;SDS011;46421;48.610;9.334;2022-10-16T06:00:04;0.35;;;0.35;;
60588;SDS011;46421;48.610;9.334;2022-10-16T06:02:30;0.40;;;0.40;;
60588;SDS011;46421;48.610;9.334;2022-10-16T06:04:56;0.40;;;0.40;;
60588;SDS011;46421;48.610;9.334;2022-10-16T06:07:21;0.40;;;0.40;;
60588;SDS011;46421;48.610;9.334;2022-10-16T06:09:48;0.30;;;0.30;;
60588;SDS011;46421;48.610;9.334;2022-10-16T06:12:15;0.40;;;0.40;;
60588;SDS011;46421;48.610;9.334;2022-10-16T06:14:40;0.40;;;0.40;;
60588;SDS011;46421;48.610;9.334;2022-10-16T06:17:06;0.40;;;0.40;;
60588;SDS011;46421;48.610;9.334;2022-10-16T06:19:31;0.30;;;0.30;;
60588;SDS011;46421;48.610;9.334;2022-10-16T06:21:57;0.40;;;0.40;;
60588;SDS011;46421;48.610;9.334;2022-10-16T06:24:23;0.40;;;0.40;;
60588;SDS011;46421;48.610;9.334;2022-10-16T06:26:49;0.38;;;0.38;;
60588;SDS011;46421;48.610;9.334;2022-10-16T06:29:14;0.32;;;0.32;;
60588;SDS011;46421;48.610;9.334;2022-10-16T06:31:39;0.50;;;0.50;;
60588;SDS011;46421;48.610;9.334;2022-10-16T06:34:05;0.50;;;0.50;;
60588;SDS011;46421;48.610;9.334;2022-10-16T06:36:34;0.45;;;0.45;;
60588;SDS011;46421;48.610;9.334;2022-10-16T06:38:59;0.30;;;0.30;;
60588;SDS011;46421;48.610;9.334;2022-10-16T06:41:25;0.30;;;0.30;;
60588;SDS011;46421;48.610;9.334;2022-10-16T06:43:50;0.40;;;0.40;;
60588;SDS011;46421;48.610;9.334;2022-10-16T06:46:18;0.40;;;0.40;;
60588;SDS011;46421;48.610;9.334;2022-10-16T06:48:46;0.30;;;0.30;;
60588;SDS011;46421;48.610;9.334;2022-10-16T06:51:12;0.40;;;0.40;;
60588;SDS011;46421;48.610;9.334;2022-10-16T06:53:46;0.40;;;0.40;;
60588;SDS011;46421;48.610;9.334;2022-10-16T06:56:18;0.30;;;0.30;;
60588;SDS011;46421;48.610;9.334;2022-10-16T06:58:45;0.40;;;0.40;;
60588;SDS011;46421;48.610;9.334;2022-10-16T07:01:11;0.50;;;0.50;;
60588;SDS011;46421;48.610;9.334;2022-10-16T07:03:38;0.30;;;0.30;;
60588;SDS011;46421;48.610;9.334;2022-10-16T07:06:07;0.30;;;0.30;;
60588;SDS011;46421;48.610;9.334;2022-10-16T07:08:35;0.20;;;0.20;;
60588;SDS011;46421;48.610;9.334;2022-10-16T07:11:03;0.32;;;0.32;;
60588;SDS011;46421;48.610;9.334;2022-10-16T07:13:33;0.30;;;0.30;;
60588;SDS011;46421;48.610;9.334;2022-10-16T07:16:21;0.20;;;0.20;;
60588;SDS011;46421;48.610;9.334;2022-10-16T07:18:46;0.30;;;0.30;;
60588;SDS011;46421;48.610;9.334;2022-10-16T07:21:20;0.30;;;0.30;;
60588;SDS011;46421;48.610;9.334;2022-10-16T07:23:50;0.40;;;0.40;;
60588;SDS011;46421;48.610;9.334;2022-10-16T07:26:19;0.40;;;0.40;;
60588;SDS011;46421;48.610;9.334;2022-10-16T07:28:45;0.40;;;0.40;;
60588;SDS011;46421;48.610;9.334;2022-10-16T07:31:11;0.20;;;0.20;;
60588;SDS011;46421;48.610;9.334;2022-10-16T07:33:39;0.35;;;0.35;;
60588;SDS011;46421;48.610;9.334;2022-10-16T07:36:08;0.30;;;0.30;;
60588;SDS011;46421;48.610;9.334;2022-10-16T07:38:33;0.30;;;0.30;;
60588;SDS011;46421;48.610;9.334;2022-10-16T07:41:03;0.40;;;0.40;;
60588;SDS011;46421;48.610;9.334;2022-10-16T07:43:30;0.30;;;0.30;;
60588;SDS011;46421;48.610;9.334;2022-10-16T07:45:56;0.30;;;0.30;;
60588;SDS011;46421;48.610;9.334;2022-10-16T07:48:22;0.20;;;0.20;;
60588;SDS011;46421;48.610;9.334;2022-10-16T07:50:49;0.30;;;0.30;;
60588;SDS011;46421;48.610;9.334;2022-10-16T07:53:15;0.30;;;0.30;;
60588;SDS011;46421;48.610;9.334;2022-10-16T07:55:40;0.20;;;0.20;;
60588;SDS011;46421;48.610;9.334;2022-10-16T07:58:06;0.30;;;0.30;;
60588;SDS011;46421;48.610;9.334;2022-10-16T08:00:32;0.38;;;0.38;;
60588;SDS011;46421;48.610;9.334;2022-10-16T08:02:58;0.20;;;0.20;;
60588;SDS011;46421;48.610;9.334;2022-10-16T08:05:31;0.30;;;0.30;;
60588;SDS011;46421;48.610;9.334;2022-10-16T08:07:58;0.20;;;0.20;;
60588;SDS011;46421;48.610;9.334;2022-10-16T08:10:24;0.30;;;0.30;;
60588;SDS011;46421;48.610;9.334;2022-10-16T08:12:52;0.20;;;0.20;;
60588;SDS011;46421;48.610;9.334;2022-10-16T08:15:18;0.20;;;0.20;;
60588;SDS011;46421;48.610;9.334;2022-10-16T08:17:44;0.20;;;0.20;;
60588;SDS011;46421;48.610;9.334;2022-10-16T08:20:18;0.30;;;0.30;;
60588;SDS011;46421;48.610;9.334;2022-10-16T08:22:43;0.20;;;0.20;;
60588;SDS011;46421;48.610;9.334;2022-10-16T08:25:09;0.40;;;0.40;;
60588;SDS011;46421;48.610;9.334;2022-10-16T08:27:34;0.30;;;0.30;;
60588;SDS011;46421;48.610;9.334;2022-10-16T08:30:00;0.30;;;0.30;;
60588;SDS011;46421;48.610;9.334;2022-10-16T08:32:25;0.30;;;0.30;;
60588;SDS011;46421;48.610;9.334;2022-10-16T08:34:51;0.28;;;0.28;;
60588;SDS011;46421;48.610;9.334;2022-10-16T08:37:16;0.30;;;0.30;;
60588;SDS011;46421;48.610;9.334;2022-10-16T08:39:41;0.30;;;0.30;;
60588;SDS011;46421;48.610;9.334;2022-10-16T08:42:10;0.30;;;0.30;;
60588;SDS011;46421;48.610;9.334;2022-10-16T08:44:54;0.30;;;0.30;;
60588;SDS011;46421;48.610;9.334;2022-10-16T08:47:38;0.40;;;0.40;;
60588;SDS011;46421;48.610;9.334;2022-10-16T08:50:10;0.25;;;0.25;;
60588;SDS011;46421;48.610;9.334;2022-10-16T08:52:39;0.20;;;0.20;;
60588;SDS011;46421;48.610;9.334;2022-10-16T08:55:08;0.20;;;0.20;;
60588;SDS011;46421;48.610;9.334;2022-10-16T09:00:14;0.20;;;0.20;;
60588;SDS011;46421;48.610;9.334;2022-10-16T09:02:43;0.28;;;0.28;;
60588;SDS011;46421;48.610;9.334;2022-10-16T09:08:16;0.20;;;0.20;;
60588;SDS011;46421;48.610;9.334;2022-10-16T09:14:06;0.28;;;0.28;;
60588;SDS011;46421;48.610;9.334;2022-10-16T09:16:44;0.22;;;0.22;;
60588;SDS011;46421;48.610;9.334;2022-10-16T09:21:53;0.20;;;0.20;;
60588;SDS011;46421;48.610;9.334;2022-10-16T09:24:21;0.20;;;0.20;;
60588;SDS011;46421;48.610;9.334;2022-10-16T09:26:50;0.10;;;0.10;;
60588;SDS011;46421;48.610;9.334;2022-10-16T09:29:17;0.20;;;0.20;;
60588;SDS011;46421;48.610;9.334;2022-10-16T09:31:46;0.30;;;0.30;;
60588;SDS011;46421;48.610;9.334;2022-10-16T09:34:34;0.50;;;0.50;;
60588;SDS011;46421;48.610;9.334;2022-10-16T09:37:04;0.40;;;0.40;;
60588;SDS011;46421;48.610;9.334;2022-10-16T09:39:46;0.10;;;0.10;;
60588;SDS011;46421;48.610;9.334;2022-10-16T09:42:18;0.50;;;0.50;;
60588;SDS011;46421;48.610;9.334;2022-10-16T09:44:50;0.30;;;0.30;;
60588;SDS011;46421;48.610;9.334;2022-10-16T09:47:19;0.20;;;0.20;;
60588;SDS011;46421;48.610;9.334;2022-10-16T09:49:54;0.00;;;0.00;;
60588;SDS011;46421;48.610;9.334;2022-10-16T09:52:26;0.10;;;0.10;;
60588;SDS011;46421;48.610;9.334;2022-10-16T09:54:52;0.10;;;0.10;;
60588;SDS011;46421;48.610;9.334;2022-10-16T09:57:20;0.10;;;0.10;;
60588;SDS011;46421;48.610;9.334;2022-10-16T09:59:53;0.10;;;0.10;;
60588;SDS011;46421;48.610;9.334;2022-10-16T10:05:03;0.10;;;0.10;;
60588;SDS011;46421;48.610;9.334;2022-10-16T10:07:31;0.10;;;0.10;;
60588;SDS011;46421;48.610;9.334;2022-10-16T10:09:59;0.10;;;0.10;;
60588;SDS011;46421;48.610;9.334;2022-10-16T10:12:28;0.10;;;0.10;;
60588;SDS011;46421;48.610;9.334;2022-10-16T10:15:33;0.20;;;0.20;;
60588;SDS011;46421;48.610;9.334;2022-10-16T10:17:56;0.10;;;0.10;;
60588;SDS011;46421;48.610;9.334;2022-10-16T10:22:51;0.20;;;0.20;;
60588;SDS011;46421;48.610;9.334;2022-10-16T10:25:23;0.38;;;0.38;;
60588;SDS011;46421;48.610;9.334;2022-10-16T10:30:40;0.40;;;0.40;;
60588;SDS011;46421;48.610;9.334;2022-10-16T10:39:00;0.10;;;0.10;;
60588;SDS011;46421;48.610;9.334;2022-10-16T10:47:30;0.40;;;0.40;;
60588;SDS011;46421;48.610;9.334;2022-10-16T10:50:19;0.22;;;0.22;;
60588;SDS011;46421;48.610;9.334;2022-10-16T10:53:59;0.30;;;0.30;;
60588;SDS011;46421;48.610;9.334;2022-10-16T10:56:22;0.32;;;0.32;;
60588;SDS011;46421;48.610;9.334;2022-10-16T10:58:56;0.30;;;0.30;;
60588;SDS011;46421;48.610;9.334;2022-10-16T11:04:28;0.35;;;0.35;;
60588;SDS011;46421;48.610;9.334;2022-10-16T11:07:21;0.20;;;0.20;;
60588;SDS011;46421;48.610;9.334;2022-10-16T11:09:57;0.20;;;0.20;;
60588;SDS011;46421;48.610;9.334;2022-10-16T11:12:29;0.30;;;0.30;;
60588;SDS011;46421;48.610;9.334;2022-10-16T11:17:28;0.10;;;0.10;;
60588;SDS011;46421;48.610;9.334;2022-10-16T11:19:57;0.00;;;0.00;;
60588;SDS011;46421;48.610;9.334;2022-10-16T11:22:36;0.00;;;0.00;;
60588;SDS011;46421;48.610;9.334;2022-10-16T11:25:07;0.00;;;0.00;;
60588;SDS011;46421;48.610;9.334;2022-10-16T11:27:43;0.00;;;0.00;;
60588;SDS011;46421;48.610;9.334;2022-10-16T11:30:20;0.10;;;0.10;;
60588;SDS011;46421;48.610;9.334;2022-10-16T11:35:39;0.10;;;0.10;;
60588;SDS011;46421;48.610;9.334;2022-10-16T11:41:10;0.20;;;0.20;;
60588;SDS011;46421;48.610;9.334;2022-10-16T11:43:41;0.10;;;0.10;;
60588;SDS011;46421;48.610;9.334;2022-10-16T11:46:20;0.10;;;0.10;;
60588;SDS011;46421;48.610;9.334;2022-10-16T11:54:58;0.30;;;0.30;;
60588;SDS011;46421;48.610;9.334;2022-10-16T11:57:28;0.20;;;0.20;;
60588;SDS011;46421;48.610;9.334;2022-10-16T11:59:58;0.20;;;0.20;;
60588;SDS011;46421;48.610;9.334;2022-10-16T12:08:20;0.20;;;0.20;;
60588;SDS011;46421;48.610;9.334;2022-10-16T12:10:47;0.28;;;0.28;;
60588;SDS011;46421;48.610;9.334;2022-10-16T12:13:35;0.20;;;0.20;;
60588;SDS011;46421;48.610;9.334;2022-10-16T12:18:31;0.20;;;0.20;;
60588;SDS011;46421;48.610;9.334;2022-10-16T12:20:57;0.10;;;0.10;;
60588;SDS011;46421;48.610;9.334;2022-10-16T12:23:29;0.20;;;0.20;;
60588;SDS011;46421;48.610;9.334;2022-10-16T12:26:01;0.20;;;0.20;;
60588;SDS011;46421;48.610;9.334;2022-10-16T12:28:36;0.20;;;0.20;;
60588;SDS011;46421;48.610;9.334;2022-10-16T12:31:12;0.10;;;0.10;;
60588;SDS011;46421;48.610;9.334;2022-10-16T12:33:39;0.10;;;0.10;;
60588;SDS011;46421;48.610;9.334;2022-10-16T12:36:13;0.20;;;0.20;;
60588;SDS011;46421;48.610;9.334;2022-10-16T12:38:51;0.20;;;0.20;;
60588;SDS011;46421;48.610;9.334;2022-10-16T12:41:24;0.10;;;0.10;;
60588;SDS011;46421;48.610;9.334;2022-10-16T12:43:58;0.10;;;0.10;;
60588;SDS011;46421;48.610;9.334;2022-10-16T12:49:06;0.20;;;0.20;;
60588;SDS011;46421;48.610;9.334;2022-10-16T12:51:41;0.20;;;0.20;;
60588;SDS011;46421;48.610;9.334;2022-10-16T13:02:21;0.10;;;0.10;;
60588;SDS011;46421;48.610;9.334;2022-10-16T13:08:05;0.20;;;0.20;;
60588;SDS011;46421;48.610;9.334;2022-10-16T13:10:59;0.10;;;0.10;;
60588;SDS011;46421;48.610;9.334;2022-10-16T13:13:46;0.10;;;0.10;;
60588;SDS011;46421;48.610;9.334;2022-10-16T13:30:28;0.10;;;0.10;;
60588;SDS011;46421;48.610;9.334;2022-10-16T13:33:06;0.00;;;0.00;;
60588;SDS011;46421;48.610;9.334;2022-10-16T13:35:46;0.10;;;0.10;;
60588;SDS011;46421;48.610;9.334;2022-10-16T13:38:17;0.05;;;0.05;;
60588;SDS011;46421;48.610;9.334;2022-10-16T13:46:13;0.10;;;0.10;;
60588;SDS011;46421;48.610;9.334;2022-10-16T13:51:11;0.10;;;0.10;;
60588;SDS011;46421;48.610;9.334;2022-10-16T13:53:38;0.10;;;0.10;;
60588;SDS011;46421;48.610;9.334;2022-10-16T13:56:06;0.10;;;0.10;;
60588;SDS011;46421;48.610;9.334;2022-10-16T13:58:34;0.00;;;0.00;;
60588;SDS011;46421;48.610;9.334;2022-10-16T14:01:01;0.00;;;0.00;;
60588;SDS011;46421;48.610;9.334;2022-10-16T14:03:30;0.10;;;0.10;;
60588;SDS011;46421;48.610;9.334;2022-10-16T14:05:59;0.00;;;0.00;;
60588;SDS011;46421;48.610;9.334;2022-10-16T14:08:27;0.00;;;0.00;;
60588;SDS011;46421;48.610;9.334;2022-10-16T14:10:55;0.00;;;0.00;;
60588;SDS011;46421;48.610;9.334;2022-10-16T14:13:26;0.10;;;0.10;;
60588;SDS011;46421;48.610;9.334;2022-10-16T14:15:53;0.05;;;0.05;;
60588;SDS011;46421;48.610;9.334;2022-10-16T14:18:21;0.00;;;0.00;;
60588;SDS011;46421;48.610;9.334;2022-10-16T14:20:50;0.10;;;0.10;;
60588;SDS011;46421;48.610;9.334;2022-10-16T14:23:23;0.00;;;0.00;;
60588;SDS011;46421;48.610;9.334;2022-10-16T14:26:05;0.00;;;0.00;;
60588;SDS011;46421;48.610;9.334;2022-10-16T14:28:40;0.00;;;0.00;;
60588;SDS011;46421;48.610;9.334;2022-10-16T14:31:23;0.00;;;0.00;;
60588;SDS011;46421;48.610;9.334;2022-10-16T14:33:54;0.00;;;0.00;;
60588;SDS011;46421;48.610;9.334;2022-10-16T14:36:19;0.00;;;0.00;;
60588;SDS011;46421;48.610;9.334;2022-10-16T14:41:27;0.00;;;0.00;;
60588;SDS011;46421;48.610;9.334;2022-10-16T14:43:54;0.10;;;0.10;;
60588;SDS011;46421;48.610;9.334;2022-10-16T14:46:22;0.00;;;0.00;;
60588;SDS011;46421;48.610;9.334;2022-10-16T14:48:58;0.00;;;0.00;;
60588;SDS011;46421;48.610;9.334;2022-10-16T14:51:27;0.00;;;0.00;;
60588;SDS011;46421;48.610;9.334;2022-10-16T14:53:52;0.10;;;0.10;;
60588;SDS011;46421;48.610;9.334;2022-10-16T14:56:20;0.10;;;0.10;;
60588;SDS011;46421;48.610;9.334;2022-10-16T14:58:48;0.10;;;0.10;;
60588;SDS011;46421;48.610;9.334;2022-10-16T15:01:15;0.10;;;0.10;;
60588;SDS011;46421;48.610;9.334;2022-10-16T15:03:41;0.10;;;0.10;;
60588;SDS011;46421;48.610;9.334;2022-10-16T15:06:10;0.10;;;0.10;;
60588;SDS011;46421;48.610;9.334;2022-10-16T15:08:37;0.10;;;0.10;;
60588;SDS011;46421;48.610;9.334;2022-10-16T15:11:02;0.10;;;0.10;;
60588;SDS011;46421;48.610;9.334;2022-10-16T15:13:28;0.20;;;0.20;;
60588;SDS011;46421;48.610;9.334;2022-10-16T15:15:54;0.20;;;0.20;;
60588;SDS011;46421;48.610;9.334;2022-10-16T15:18:19;0.13;;;0.13;;
60588;SDS011;46421;48.610;9.334;2022-10-16T15:20:47;0.08;;;0.08;;
60588;SDS011;46421;48.610;9.334;2022-10-16T15:23:17;0.10;;;0.10;;
60588;SDS011;46421;48.610;9.334;2022-10-16T15:25:45;0.10;;;0.10;;
60588;SDS011;46421;48.610;9.334;2022-10-16T15:28:12;0.20;;;0.15;;
60588;SDS011;46421;48.610;9.334;2022-10-16T15:30:39;0.20;;;0.20;;
60588;SDS011;46421;48.610;9.334;2022-10-16T15:33:05;0.10;;;0.10;;
60588;SDS011;46421;48.610;9.334;2022-10-16T15:35:37;0.10;;;0.10;;
60588;SDS011;46421;48.610;9.334;2022-10-16T15:38:02;0.10;;;0.10;;
60588;SDS011;46421;48.610;9.334;2022-10-16T15:40:28;0.10;;;0.10;;
60588;SDS011;46421;48.610;9.334;2022-10-16T15:42:53;0.20;;;0.20;;
60588;SDS011;46421;48.610;9.334;2022-10-16T15:45:19;0.10;;;0.10;;
60588;SDS011;46421;48.610;9.334;2022-10-16T15:47:45;0.10;;;0.10;;
60588;SDS011;46421;48.610;9.334;2022-10-16T15:50:11;0.10;;;0.10;;
60588;SDS011;46421;48.610;9.334;2022-10-16T15:52:38;0.13;;;0.13;;
60588;SDS011;46421;48.610;9.334;2022-10-16T15:55:13;0.10;;;0.10;;
60588;SDS011;46421;48.610;9.334;2022-10-16T15:57:39;0.20;;;0.20;;
60588;SDS011;46421;48.610;9.334;2022-10-16T16:00:08;0.20;;;0.20;;
60588;SDS011;46421;48.610;9.334;2022-10-16T16:02:35;0.20;;;0.20;;
60588;SDS011;46421;48.610;9.334;2022-10-16T16:05:01;0.05;;;0.05;;
60588;SDS011;46421;48.610;9.334;2022-10-16T16:07:26;0.10;;;0.10;;
60588;SDS011;46421;48.610;9.334;2022-10-16T16:09:52;0.20;;;0.20;;
60588;SDS011;46421;48.610;9.334;2022-10-16T16:12:18;0.20;;;0.20;;
60588;SDS011;46421;48.610;9.334;2022-10-16T16:14:43;0.10;;;0.10;;
60588;SDS011;46421;48.610;9.334;2022-10-16T16:17:11;0.20;;;0.20;;
60588;SDS011;46421;48.610;9.334;2022-10-16T16:19:36;0.13;;;0.13;;
60588;SDS011;46421;48.610;9.334;2022-10-16T16:22:02;0.20;;;0.20;;
60588;SDS011;46421;48.610;9.334;2022-10-16T16:24:28;0.10;;;0.10;;
60588;SDS011;46421;48.610;9.334;2022-10-16T16:26:53;0.20;;;0.20;;
60588;SDS011;46421;48.610;9.334;2022-10-16T16:29:19;0.10;;;0.10;;
60588;SDS011;46421;48.610;9.334;2022-10-16T16:31:44;0.10;;;0.10;;
60588;SDS011;46421;48.610;9.334;2022-10-16T16:34:12;0.15;;;0.15;;
60588;SDS011;46421;48.610;9.334;2022-10-16T16:36:37;0.20;;;0.20;;
60588;SDS011;46421;48.610;9.334;2022-10-16T16:39:04;0.20;;;0.20;;
60588;SDS011;46421;48.610;9.334;2022-10-16T16:41:31;0.10;;;0.10;;
60588;SDS011;46421;48.610;9.334;2022-10-16T16:44:04;0.20;;;0.20;;